Time;durP1;ratioP1;P1;durP2;ratioP2;P2;SDS_P1;SDS_P2;PMS_P1;PMS_P2;Temp;Humidity;BMP_temperature;BMP_pressure;BME280_temperature;BME280_humidity;BME280_pressure;Samples;Min_cycle;Max_cycle;Signal;HPM_P1;HPM_P2
2021/05/31 00:03:07;;;;;;;3.90;2.30;;;;;;;11.25;71.93;99082.17;3757079;77;44130;-21
2021/05/31 00:08:13;;;;;;;4.03;2.12;;;;;;;11.18;71.85;99075.69;3749745;77;43419;-21
2021/05/31 00:13:20;;;;;;;2.62;2.15;;;;;;;11.15;71.48;99069.23;3741528;77;43341;-22
2021/05/31 00:18:26;;;;;;;2.50;2.10;;;;;;;11.12;72.05;99065.48;3702429;78;43286;-21
2021/05/31 00:23:32;;;;;;;2.70;2.30;;;;;;;11.07;72.55;99064.58;3738762;77;43654;-21
2021/05/31 00:28:38;;;;;;;2.83;2.35;;;;;;;10.98;72.76;99053.34;3708351;78;44769;-22
2021/05/31 00:33:45;;;;;;;3.92;2.40;;;;;;;10.92;73.07;99046.22;3729808;77;43459;-21
2021/05/31 00:38:51;;;;;;;2.33;1.90;;;;;;;10.79;75.11;99051.92;3707955;78;44090;-21
2021/05/31 00:43:57;;;;;;;3.22;2.10;;;;;;;10.66;76.07;99051.91;3749362;77;44436;-21
2021/05/31 00:49:03;;;;;;;3.52;2.40;;;;;;;10.42;79.33;99051.89;3704120;78;43428;-21
2021/05/31 00:54:10;;;;;;;4.00;2.72;;;;;;;10.21;83.04;99048.84;3720722;78;43665;-21
2021/05/31 00:59:16;;;;;;;5.22;2.80;;;;;;;9.81;87.83;99050.70;3705181;78;44704;-21
2021/05/31 01:04:22;;;;;;;3.50;2.52;;;;;;;9.70;90.83;99054.88;3731589;77;43318;-21
2021/05/31 01:09:33;;;;;;;3.10;2.80;;;;;;;9.61;90.95;99053.87;3712255;78;44179;-21
2021/05/31 01:14:45;;;;;;;3.80;2.50;;;;;;;9.53;91.42;99055.03;3741082;77;43722;-21
2021/05/31 01:20:17;;;;;;;4.30;3.10;;;;;;;9.46;92.71;99049.87;3675177;79;44036;-20
2021/05/31 01:25:33;;;;;;;4.90;3.20;;;;;;;9.38;93.08;99045.17;3722696;77;43689;-23
2021/05/31 01:30:42;;;;;;;3.95;3.10;;;;;;;9.18;95.55;99040.23;3729175;77;43716;-23
2021/05/31 01:35:50;;;;;;;3.92;3.22;;;;;;;9.10;96.11;99042.30;3672381;79;44136;-23
2021/05/31 01:40:57;;;;;;;4.78;3.08;;;;;;;9.02;96.40;99041.63;3740074;77;44380;-23
2021/05/31 01:46:03;;;;;;;4.78;3.30;;;;;;;8.91;97.87;99036.35;3701103;78;43680;-23
2021/05/31 01:51:10;;;;;;;4.70;3.20;;;;;;;8.86;98.59;99038.10;3705775;78;65108;-21
2021/05/31 01:56:17;;;;;;;5.33;3.65;;;;;;;8.71;100.00;99040.27;3675662;79;43957;-21
2021/05/31 02:01:23;;;;;;;4.40;3.17;;;;;;;8.52;100.00;99042.39;3738850;76;81176;-21
2021/05/31 02:06:29;;;;;;;4.30;3.00;;;;;;;8.38;100.00;99044.04;3802598;76;43032;-21
2021/05/31 02:11:41;;;;;;;4.55;3.22;;;;;;;8.28;100.00;99041.28;3804126;76;43456;-21
2021/05/31 02:16:52;;;;;;;3.75;2.90;;;;;;;8.30;100.00;99039.32;3800300;76;44000;-21
2021/05/31 02:22:02;;;;;;;4.37;3.40;;;;;;;8.29;100.00;99043.82;3798713;76;43762;-21
2021/05/31 02:27:09;;;;;;;4.75;3.33;;;;;;;8.22;100.00;99040.48;3803470;76;44553;-21
2021/05/31 02:32:16;;;;;;;4.83;3.72;;;;;;;8.13;100.00;99033.55;3802142;76;43795;-20
2021/05/31 02:37:27;;;;;;;4.83;3.25;;;;;;;8.05;100.00;99027.99;3799054;78;43329;-21
2021/05/31 02:42:38;;;;;;;3.70;3.27;;;;;;;8.05;100.00;99031.18;3803578;76;44666;-22
2021/05/31 02:47:45;;;;;;;4.37;3.33;;;;;;;7.97;100.00;99025.12;3802506;77;43676;-21
2021/05/31 02:52:52;;;;;;;3.22;2.90;;;;;;;7.88;100.00;99022.71;3803171;76;44186;-21
2021/05/31 02:57:59;;;;;;;6.75;3.62;;;;;;;7.82;100.00;99024.08;3801261;76;43681;-20
2021/05/31 03:03:05;;;;;;;4.62;3.37;;;;;;;7.79;100.00;99022.98;3803439;76;43379;-22
2021/05/31 03:08:11;;;;;;;4.50;3.37;;;;;;;7.70;100.00;99025.94;3800515;78;44074;-22
2021/05/31 03:13:19;;;;;;;4.37;3.30;;;;;;;7.61;100.00;99025.37;3818187;76;43063;-22
2021/05/31 03:18:25;;;;;;;7.00;4.05;;;;;;;7.55;100.00;99024.56;3824501;77;43247;-22
2021/05/31 03:23:32;;;;;;;4.72;3.50;;;;;;;7.52;100.00;99019.44;3822729;76;43672;-24
2021/05/31 03:28:38;;;;;;;5.87;3.60;;;;;;;7.49;100.00;99024.58;3732097;79;69077;-20
2021/05/31 03:33:44;;;;;;;5.75;4.05;;;;;;;7.46;100.00;99023.48;3736844;78;43648;-20
2021/05/31 03:38:50;;;;;;;4.70;3.22;;;;;;;7.49;100.00;99023.23;3759248;78;43671;-21
2021/05/31 03:43:56;;;;;;;3.75;3.10;;;;;;;7.47;100.00;99032.36;3732684;78;43130;-20
2021/05/31 03:49:03;;;;;;;6.60;3.90;;;;;;;7.46;100.00;99032.03;3723391;78;44072;-21
2021/05/31 03:54:09;;;;;;;5.17;3.98;;;;;;;7.37;100.00;99036.30;3724364;78;43263;-21
2021/05/31 03:59:15;;;;;;;6.28;3.62;;;;;;;7.35;100.00;99035.58;3723711;78;43672;-21
2021/05/31 04:04:22;;;;;;;4.10;3.15;;;;;;;7.33;100.00;99030.83;3721370;78;44250;-21
2021/05/31 04:14:54;;;;;;;5.85;3.75;;;;;;;7.34;100.00;99029.38;3692743;79;43726;-21
2021/05/31 04:20:00;;;;;;;5.60;3.70;;;;;;;7.39;100.00;99031.17;3694172;79;44534;-21
2021/05/31 04:25:08;;;;;;;5.37;4.13;;;;;;;7.41;100.00;99041.77;3694340;79;43070;-21
2021/05/31 04:30:15;;;;;;;5.35;3.90;;;;;;;7.46;100.00;99040.91;3695352;79;43419;-21
2021/05/31 04:35:21;;;;;;;4.50;3.80;;;;;;;7.48;100.00;99039.42;3690180;79;69263;-21
2021/05/31 04:40:27;;;;;;;5.13;4.07;;;;;;;7.53;100.00;99033.21;3700597;79;43353;-21
2021/05/31 04:45:33;;;;;;;4.27;3.77;;;;;;;7.59;100.00;99029.17;3689922;80;44141;-21
2021/05/31 04:50:39;;;;;;;5.50;4.07;;;;;;;7.64;100.00;99027.81;3806872;76;69442;-21
2021/05/31 04:55:46;;;;;;;4.55;3.80;;;;;;;7.69;100.00;99035.00;3808529;77;44066;-21
2021/05/31 05:00:53;;;;;;;7.00;4.40;;;;;;;7.71;100.00;99037.54;3805738;76;43357;-21
2021/05/31 05:05:59;;;;;;;5.10;3.98;;;;;;;7.76;100.00;99035.81;3804809;77;43299;-21
2021/05/31 05:11:05;;;;;;;7.75;4.30;;;;;;;7.80;100.00;99037.27;3800316;76;43626;-21
2021/05/31 05:16:12;;;;;;;5.23;4.50;;;;;;;7.90;100.00;99035.52;3805462;77;69120;-21
2021/05/31 05:21:18;;;;;;;5.80;4.83;;;;;;;7.99;100.00;99034.73;3807720;76;43384;-20
2021/05/31 05:26:24;;;;;;;5.90;4.75;;;;;;;8.10;100.00;99035.17;3804504;77;44079;-21
2021/05/31 05:31:31;;;;;;;6.05;4.53;;;;;;;8.23;100.00;99037.66;3808061;76;43599;-21
2021/05/31 05:36:45;;;;;;;8.00;4.95;;;;;;;8.36;100.00;99041.97;3804275;77;44015;-21
2021/05/31 05:52:36;;;;;;;7.55;4.67;;;;;;;8.86;100.00;99045.30;3806267;76;43709;-20
2021/05/31 05:57:43;;;;;;;6.65;5.03;;;;;;;8.98;100.00;99044.72;3724634;79;44014;-20
2021/05/31 06:02:50;;;;;;;6.50;4.78;;;;;;;9.11;100.00;99057.44;3803236;76;43423;-20
2021/05/31 06:07:56;;;;;;;7.75;4.65;;;;;;;9.25;100.00;99047.63;3802941;77;44787;-21
2021/05/31 06:13:02;;;;;;;7.17;4.75;;;;;;;9.38;100.00;99051.42;3805560;76;43326;-21
2021/05/31 06:18:08;;;;;;;6.17;5.00;;;;;;;9.54;100.00;99054.91;3801143;76;69057;-21
2021/05/31 06:23:14;;;;;;;7.62;5.10;;;;;;;9.73;100.00;99058.61;3805396;76;44043;-21
2021/05/31 06:28:20;;;;;;;6.78;4.67;;;;;;;9.85;100.00;99057.48;3802228;76;43712;-21
2021/05/31 06:33:26;;;;;;;7.00;4.80;;;;;;;10.05;100.00;99048.09;3805678;76;43340;-21
2021/05/31 06:38:32;;;;;;;9.45;4.85;;;;;;;10.25;100.00;99050.75;3807478;76;69054;-22
2021/05/31 06:43:39;;;;;;;5.97;4.58;;;;;;;10.50;100.00;99052.52;3799940;76;43995;-21
2021/05/31 06:48:45;;;;;;;5.55;4.55;;;;;;;10.64;100.00;99045.33;3806415;76;43660;-21
2021/05/31 06:53:51;;;;;;;6.25;4.80;;;;;;;10.79;100.00;99049.22;3730012;78;43008;-21
2021/05/31 06:58:57;;;;;;;5.75;4.42;;;;;;;11.04;100.00;99051.42;3803390;76;44089;-21
2021/05/31 07:04:03;;;;;;;11.30;5.42;;;;;;;11.18;100.00;99047.36;3803821;76;44031;-19
2021/05/31 07:09:10;;;;;;;7.83;5.28;;;;;;;11.35;100.00;99041.15;3806234;76;43350;-20
2021/05/31 07:14:19;;;;;;;5.83;4.55;;;;;;;11.56;100.00;99044.94;3802017;76;43439;-20
2021/05/31 07:19:26;;;;;;;8.05;4.80;;;;;;;11.68;100.00;99037.48;3805093;76;43400;-20
2021/05/31 07:24:33;;;;;;;4.50;3.95;;;;;;;12.09;100.00;99040.23;3805500;77;43957;-20
2021/05/31 07:29:39;;;;;;;6.17;4.47;;;;;;;12.22;100.00;99043.38;3804444;76;43681;-21
2021/05/31 07:34:45;;;;;;;6.33;4.35;;;;;;;12.45;97.26;99040.17;3806148;77;44017;-21
2021/05/31 07:39:51;;;;;;;5.55;3.77;;;;;;;12.64;94.60;99032.36;3803329;76;42844;-21
2021/05/31 07:44:57;;;;;;;4.08;3.15;;;;;;;12.87;91.04;99032.67;3804977;77;44734;-21
2021/05/31 07:50:04;;;;;;;3.10;2.52;;;;;;;13.07;82.72;99028.36;3800658;76;45134;-21
2021/05/31 07:55:13;;;;;;;3.25;2.70;;;;;;;13.36;80.69;99018.98;3807126;77;43724;-21
2021/05/31 08:00:22;;;;;;;4.87;2.80;;;;;;;13.58;77.95;99017.55;3725567;78;43465;-21
2021/05/31 08:05:28;;;;;;;3.45;2.70;;;;;;;13.81;77.96;99011.00;3804768;77;44001;-21
2021/05/31 08:10:35;;;;;;;2.80;2.40;;;;;;;14.07;74.24;99005.08;3724372;78;43041;-21
2021/05/31 08:15:41;;;;;;;3.62;2.60;;;;;;;14.22;73.18;99016.08;3804984;77;44022;-21
2021/05/31 08:20:47;;;;;;;3.83;2.87;;;;;;;14.48;72.88;99011.31;3804933;76;44678;-22
2021/05/31 08:25:53;;;;;;;4.17;2.85;;;;;;;14.67;71.05;99011.11;3807090;76;43977;-23
2021/05/31 08:31:00;;;;;;;3.47;2.52;;;;;;;14.74;70.98;99010.77;3805027;76;43960;-23
2021/05/31 08:36:08;;;;;;;2.60;2.40;;;;;;;14.95;72.39;99003.42;3800945;78;44740;-22
2021/05/31 08:41:14;;;;;;;3.72;2.60;;;;;;;15.12;72.38;99005.55;3803191;76;44047;-22
2021/05/31 08:46:20;;;;;;;3.60;2.15;;;;;;;15.31;67.53;99000.20;3806945;76;43327;-21
2021/05/31 08:51:27;;;;;;;2.87;2.30;;;;;;;15.37;60.69;99000.01;3726977;78;43597;-21
2021/05/31 08:56:34;;;;;;;3.20;2.12;;;;;;;15.67;57.87;99006.94;3804535;76;44137;-21
2021/05/31 09:01:40;;;;;;;3.52;2.70;;;;;;;15.79;55.52;99002.78;3804914;76;43451;-21
2021/05/31 09:06:56;;;;;;;3.87;2.47;;;;;;;15.85;51.79;98994.45;3725707;78;43674;-21
2021/05/31 09:12:05;;;;;;;2.80;2.20;;;;;;;15.89;52.74;98994.93;3807382;76;43702;-22
2021/05/31 09:17:09;;;;;;;3.67;2.50;;;;;;;16.11;54.13;98986.44;3845951;75;43127;-22
2021/05/31 09:22:15;;;;;;;3.10;2.27;;;;;;;16.22;52.59;98991.44;3860129;75;43353;-22
2021/05/31 09:27:21;;;;;;;2.87;2.30;;;;;;;16.24;51.56;98993.95;3859552;75;44074;-21
2021/05/31 09:32:28;;;;;;;2.70;2.20;;;;;;;16.29;51.52;98981.50;3860005;75;44054;-21
2021/05/31 09:37:38;;;;;;;3.00;2.25;;;;;;;16.41;49.22;98987.84;3788327;77;43730;-22
2021/05/31 09:42:51;;;;;;;4.55;2.30;;;;;;;16.60;49.85;98989.19;3737219;78;43298;-22
2021/05/31 09:48:00;;;;;;;2.40;2.20;;;;;;;16.59;48.96;98984.28;3734647;78;44596;-22
2021/05/31 09:53:09;;;;;;;2.98;2.22;;;;;;;16.62;48.48;98973.53;3785417;77;44431;-21
2021/05/31 09:58:17;;;;;;;2.65;2.17;;;;;;;16.77;51.09;98978.47;3787833;77;43713;-22
2021/05/31 10:03:32;;;;;;;2.75;2.45;;;;;;;16.91;50.51;98974.57;3788467;77;43717;-22
2021/05/31 10:08:41;;;;;;;3.35;2.50;;;;;;;16.92;49.62;98977.63;3733950;78;44067;-22
2021/05/31 10:13:47;;;;;;;2.60;2.40;;;;;;;17.08;51.38;98965.18;3735934;78;43413;-22
2021/05/31 10:18:54;;;;;;;3.62;2.45;;;;;;;17.13;50.15;98973.30;3699857;79;44428;-21
2021/05/31 10:24:00;;;;;;;3.05;2.17;;;;;;;17.10;49.49;98967.73;3719876;78;44430;-21
2021/05/31 10:29:06;;;;;;;3.37;2.55;;;;;;;17.15;48.50;98960.34;3690108;79;44559;-22
2021/05/31 10:34:21;;;;;;;2.58;2.22;;;;;;;17.24;48.33;98965.47;3725773;78;43400;-22
2021/05/31 10:39:28;;;;;;;2.77;2.25;;;;;;;17.25;49.38;98961.72;3807547;76;43700;-22
2021/05/31 10:44:35;;;;;;;4.42;2.95;;;;;;;17.25;47.33;98959.00;3806510;76;43024;-21
2021/05/31 10:49:41;;;;;;;2.92;2.15;;;;;;;17.48;50.18;98955.27;3806985;76;43698;-22
2021/05/31 10:54:47;;;;;;;2.58;2.27;;;;;;;17.64;50.88;98954.70;3806427;76;42890;-22
2021/05/31 10:59:55;;;;;;;2.60;2.40;;;;;;;17.94;51.88;98954.05;3805389;77;44065;-21
2021/05/31 11:05:10;;;;;;;2.62;2.20;;;;;;;18.23;50.83;98948.64;3805695;78;43372;-22
2021/05/31 11:10:19;;;;;;;2.27;2.08;;;;;;;18.40;51.18;98944.59;3726054;78;42926;-22
2021/05/31 11:15:28;;;;;;;6.60;2.40;;;;;;;18.40;49.88;98945.95;3734155;78;43999;-22
2021/05/31 11:20:33;;;;;;;2.95;2.55;;;;;;;18.54;48.64;98935.10;3804887;76;44186;-22
2021/05/31 11:25:40;;;;;;;3.02;2.27;;;;;;;18.54;47.43;98940.56;3804171;76;43333;-23
2021/05/31 11:30:48;;;;;;;4.15;2.45;;;;;;;18.55;46.53;98935.42;3807044;76;44861;-21
2021/05/31 11:35:55;;;;;;;2.40;2.20;;;;;;;18.57;46.39;98936.94;3725117;78;42791;-23
2021/05/31 11:41:05;;;;;;;2.60;2.25;;;;;;;18.42;46.86;98927.48;3806839;76;43438;-20
2021/05/31 11:46:16;;;;;;;2.92;2.50;;;;;;;18.97;48.64;98931.38;3805886;77;44336;-21
2021/05/31 11:51:22;;;;;;;4.50;2.37;;;;;;;19.05;47.84;98933.95;3725532;78;43690;-21
2021/05/31 11:56:36;;;;;;;2.52;2.27;;;;;;;19.03;46.09;98927.84;3806354;77;43377;-22
2021/05/31 12:01:51;;;;;;;2.52;2.33;;;;;;;19.16;45.82;98922.94;3803958;77;43583;-22
2021/05/31 12:07:00;;;;;;;2.98;2.33;;;;;;;19.06;45.45;98920.08;3725023;79;43287;-22
2021/05/31 12:12:09;;;;;;;3.83;2.55;;;;;;;19.37;45.65;98911.86;3805268;76;44097;-22
2021/05/31 12:17:16;;;;;;;3.62;2.70;;;;;;;19.44;45.35;98913.78;3805268;77;43694;-22
2021/05/31 12:22:26;;;;;;;3.95;2.50;;;;;;;19.75;45.03;98907.73;3806456;76;43346;-22
2021/05/31 12:27:35;;;;;;;3.60;3.00;;;;;;;19.84;47.02;98905.11;3805924;77;43684;-22
2021/05/31 12:32:42;;;;;;;5.30;2.70;;;;;;;19.62;44.21;98903.08;3804396;76;43407;-22
2021/05/31 12:37:52;;;;;;;3.52;2.52;;;;;;;19.68;44.88;98895.94;3804956;76;44024;-22
2021/05/31 12:42:58;;;;;;;3.77;2.80;;;;;;;20.22;45.64;98887.22;3808796;76;43684;-22
2021/05/31 12:48:07;;;;;;;2.52;2.33;;;;;;;20.03;43.17;98899.86;3806896;77;43460;-21
2021/05/31 12:53:14;;;;;;;4.22;2.83;;;;;;;19.81;44.36;98892.39;3808351;76;43330;-22
2021/05/31 12:58:24;;;;;;;4.25;2.62;;;;;;;20.14;45.50;98885.55;3806034;78;43987;-22
2021/05/31 13:03:33;;;;;;;2.77;2.55;;;;;;;20.89;45.62;98884.86;3805771;76;43727;-22
2021/05/31 13:08:41;;;;;;;4.37;2.47;;;;;;;21.01;43.90;98887.73;3722370;79;43437;-22
2021/05/31 13:13:48;;;;;;;2.58;2.37;;;;;;;21.08;42.91;98877.61;3809307;76;44131;-22
2021/05/31 13:18:53;;;;;;;2.95;2.60;;;;;;;20.65;42.25;98874.91;3803843;76;43285;-21
2021/05/31 13:23:59;;;;;;;2.65;2.42;;;;;;;20.37;42.81;98872.47;3807816;76;43268;-22
2021/05/31 13:29:07;;;;;;;4.28;2.45;;;;;;;21.20;42.39;98877.22;3728240;78;44414;-22
2021/05/31 13:34:13;;;;;;;4.20;2.80;;;;;;;21.99;41.92;98871.38;3801746;76;44079;-22
2021/05/31 13:39:23;;;;;;;3.33;2.72;;;;;;;21.01;42.31;98869.94;3807592;76;44033;-22
2021/05/31 13:44:30;;;;;;;3.30;2.60;;;;;;;22.06;41.29;98872.70;3805437;76;43523;-23
2021/05/31 13:49:37;;;;;;;3.10;2.80;;;;;;;21.10;41.04;98879.60;3809591;76;44058;-22
2021/05/31 13:54:43;;;;;;;3.10;2.80;;;;;;;21.56;41.26;98878.98;3799722;76;43502;-22
2021/05/31 13:59:52;;;;;;;51.50;6.53;;;;;;;21.21;39.98;98863.84;3799604;76;43684;-22
2021/05/31 14:04:58;;;;;;;3.17;2.60;;;;;;;22.11;40.29;98856.95;3802153;76;43329;-23
2021/05/31 14:10:07;;;;;;;3.10;2.40;;;;;;;22.65;37.58;98854.47;3808904;76;44029;-23
2021/05/31 14:15:16;;;;;;;4.33;2.50;;;;;;;23.03;37.82;98847.87;3805806;76;43683;-23
2021/05/31 14:20:26;;;;;;;4.40;2.40;;;;;;;22.68;35.49;98854.02;3806257;76;44420;-23
2021/05/31 14:25:34;;;;;;;2.85;2.40;;;;;;;22.97;38.15;98839.20;3724642;79;43739;-23
2021/05/31 14:30:41;;;;;;;2.58;2.37;;;;;;;23.11;38.01;98840.39;3779868;76;43918;-22
2021/05/31 14:35:47;;;;;;;2.98;2.50;;;;;;;23.18;36.37;98837.00;3720799;79;43143;-21
2021/05/31 14:40:53;;;;;;;2.60;2.22;;;;;;;23.21;37.27;98832.45;3805912;76;44045;-22
2021/05/31 14:46:01;;;;;;;5.37;2.33;;;;;;;23.12;36.40;98828.30;3802058;77;43090;-22
2021/05/31 14:51:14;;;;;;;3.80;2.10;;;;;;;24.00;35.72;98825.36;3725492;78;44004;-22
2021/05/31 14:56:20;;;;;;;3.85;2.25;;;;;;;24.31;35.25;98828.80;3804933;77;43759;-22
2021/05/31 15:01:27;;;;;;;4.40;2.52;;;;;;;24.57;34.96;98834.05;3804563;76;44013;-22
2021/05/31 15:06:33;;;;;;;2.65;2.10;;;;;;;24.89;33.59;98826.16;3802124;77;42794;-23
2021/05/31 15:11:40;;;;;;;5.35;2.17;;;;;;;24.92;32.19;98829.81;3808060;76;44004;-22
2021/05/31 15:16:47;;;;;;;3.72;2.25;;;;;;;24.78;34.39;98827.05;3804263;77;43272;-22
2021/05/31 15:21:53;;;;;;;2.65;2.12;;;;;;;25.13;34.22;98828.00;3807752;76;43721;-22
2021/05/31 15:27:00;;;;;;;2.52;2.00;;;;;;;25.53;34.30;98819.66;3804529;77;43274;-22
2021/05/31 15:32:10;;;;;;;2.47;2.10;;;;;;;25.07;33.83;98821.00;3807076;76;44220;-22
2021/05/31 15:37:17;;;;;;;2.92;2.20;;;;;;;25.12;34.66;98818.05;3805916;77;44199;-22
2021/05/31 15:42:23;;;;;;;2.58;2.12;;;;;;;25.19;34.37;98814.06;3810169;76;44720;-22
2021/05/31 15:47:30;;;;;;;3.92;2.65;;;;;;;24.90;34.25;98811.86;3805278;76;43050;-23
2021/05/31 15:52:37;;;;;;;5.17;2.67;;;;;;;24.61;34.20;98804.38;3809179;76;43419;-22
2021/05/31 15:57:43;;;;;;;4.50;2.30;;;;;;;24.19;35.36;98796.31;3720018;79;42960;-22
2021/05/31 16:02:50;;;;;;;3.30;2.30;;;;;;;23.91;35.11;98795.13;3806494;76;44221;-22
2021/05/31 16:08:00;;;;;;;2.95;2.50;;;;;;;23.81;35.10;98788.02;3805744;76;43284;-22
2021/05/31 16:13:11;;;;;;;3.22;2.50;;;;;;;24.41;35.10;98784.66;3725375;78;43735;-23
2021/05/31 16:18:17;;;;;;;3.15;2.85;;;;;;;25.07;34.51;98788.48;3801055;77;43956;-22
2021/05/31 16:23:26;;;;;;;3.55;2.50;;;;;;;25.21;34.15;98777.44;3804036;76;44381;-23
2021/05/31 16:28:35;;;;;;;3.35;2.87;;;;;;;25.73;33.77;98774.72;3802219;76;42957;-23
2021/05/31 16:33:42;;;;;;;5.53;3.37;;;;;;;25.30;33.39;98779.22;3804176;76;43416;-23
2021/05/31 16:38:48;;;;;;;3.35;3.05;;;;;;;24.77;35.14;98777.15;3805644;76;44125;-23
2021/05/31 16:43:55;;;;;;;4.25;2.87;;;;;;;24.52;35.82;98779.66;3805446;76;44034;-23
2021/05/31 16:49:01;;;;;;;3.62;3.17;;;;;;;24.41;36.40;98779.15;3802239;76;43322;-23
2021/05/31 16:54:08;;;;;;;3.47;3.10;;;;;;;24.66;35.62;98780.75;3809115;76;43298;-23
2021/05/31 16:59:16;;;;;;;5.45;3.37;;;;;;;24.57;34.89;98783.09;3806549;76;43205;-23
2021/05/31 17:04:22;;;;;;;3.02;2.72;;;;;;;24.78;35.06;98776.07;3806928;78;44119;-22
2021/05/31 17:09:30;;;;;;;3.27;2.70;;;;;;;24.55;35.57;98777.80;3728460;78;43397;-22
2021/05/31 17:14:48;;;;;;;4.17;2.95;;;;;;;24.42;34.72;98771.19;3806246;76;44170;-22
2021/05/31 17:19:53;;;;;;;3.67;3.20;;;;;;;24.71;35.86;98771.27;3726297;78;43674;-23
2021/05/31 17:24:59;;;;;;;5.53;3.12;;;;;;;24.54;34.71;98771.17;3803446;76;43697;-24
2021/05/31 17:30:09;;;;;;;3.60;3.30;;;;;;;24.58;36.83;98773.19;3809187;76;43420;-22
2021/05/31 17:35:19;;;;;;;5.55;3.10;;;;;;;24.06;37.27;98767.14;3803619;76;43330;-22
2021/05/31 17:40:26;;;;;;;5.37;3.35;;;;;;;23.41;38.23;98766.13;3813254;76;44012;-22
2021/05/31 17:45:32;;;;;;;3.45;3.15;;;;;;;23.59;36.82;98769.32;3806147;76;44732;-22
2021/05/31 17:50:41;;;;;;;4.10;3.15;;;;;;;23.53;38.42;98771.66;3807650;76;43429;-22
2021/05/31 17:55:47;;;;;;;5.30;3.40;;;;;;;23.19;38.62;98767.21;3803302;76;43696;-22
2021/05/31 18:00:53;;;;;;;3.70;3.30;;;;;;;22.87;39.05;98761.99;3807966;76;43696;-21
2021/05/31 18:06:00;;;;;;;5.35;3.10;;;;;;;22.63;40.41;98756.41;3806772;76;43689;-21
2021/05/31 18:11:07;;;;;;;3.42;3.00;;;;;;;22.67;40.19;98759.52;3810623;76;43471;-21
2021/05/31 18:16:14;;;;;;;2.90;2.70;;;;;;;22.40;39.99;98756.53;3805845;76;43947;-22
2021/05/31 18:21:20;;;;;;;3.83;3.00;;;;;;;21.97;41.11;98747.86;3800605;76;43564;-22
2021/05/31 18:26:26;;;;;;;3.65;3.08;;;;;;;21.37;41.19;98746.50;3804725;76;43386;-22
2021/05/31 18:31:36;;;;;;;4.70;3.02;;;;;;;21.11;40.90;98745.64;3807488;76;43444;-22
2021/05/31 18:36:46;;;;;;;3.30;3.00;;;;;;;20.87;41.89;98739.09;3805746;78;43087;-22
2021/05/31 18:41:52;;;;;;;4.28;3.02;;;;;;;20.40;42.71;98746.17;3730219;78;44074;-21
2021/05/31 18:46:57;;;;;;;5.42;3.35;;;;;;;20.12;43.10;98748.69;3803187;78;43689;-21
2021/05/31 18:52:08;;;;;;;3.85;2.83;;;;;;;19.74;43.56;98748.00;3810441;76;43999;-21
2021/05/31 18:57:13;;;;;;;3.95;2.85;;;;;;;19.33;43.86;98754.89;3731615;78;42658;-22
2021/05/31 19:02:19;;;;;;;4.60;3.20;;;;;;;18.98;44.70;98756.95;3806271;76;44092;-22
2021/05/31 19:07:26;;;;;;;4.58;3.20;;;;;;;18.64;45.23;98754.10;3804104;76;44043;-23
2021/05/31 19:12:32;;;;;;;6.08;3.20;;;;;;;18.32;45.88;98759.25;3727764;78;44042;-25
2021/05/31 19:17:39;;;;;;;3.58;2.72;;;;;;;18.06;46.13;98752.61;3805794;78;43790;-23
2021/05/31 19:22:45;;;;;;;3.98;2.98;;;;;;;17.70;46.26;98759.94;3810356;76;43660;-23
2021/05/31 19:27:53;;;;;;;4.97;3.35;;;;;;;17.52;46.92;98759.08;3803568;77;43420;-24
2021/05/31 19:32:59;;;;;;;3.30;3.00;;;;;;;17.31;47.18;98763.20;3811347;76;43704;-23
2021/05/31 19:38:06;;;;;;;3.85;2.80;;;;;;;17.19;47.35;98763.73;3806871;77;43757;-23
2021/05/31 19:43:13;;;;;;;3.70;2.80;;;;;;;17.03;47.85;98774.87;3809080;76;44047;-23
2021/05/31 19:48:22;;;;;;;3.67;2.90;;;;;;;16.93;48.47;98780.64;3806205;77;44416;-23
2021/05/31 19:53:30;;;;;;;3.05;2.60;;;;;;;16.73;51.58;98780.41;3812915;76;43373;-23
2021/05/31 20:04:01;;;;;;;3.45;2.75;;;;;;;16.12;56.80;98789.70;3804371;76;43572;-24
2021/05/31 20:09:07;;;;;;;3.95;2.72;;;;;;;15.86;58.42;98797.80;3725762;79;43983;-23
2021/05/31 20:14:13;;;;;;;4.70;3.27;;;;;;;15.81;57.87;98797.50;3807744;76;43721;-24
2021/05/31 20:19:19;;;;;;;4.05;3.27;;;;;;;15.58;59.39;98788.91;3806654;78;44069;-23
2021/05/31 20:24:26;;;;;;;3.65;2.87;;;;;;;15.33;59.92;98794.56;3804974;76;44085;-23
2021/05/31 20:29:32;;;;;;;3.37;2.92;;;;;;;15.24;60.29;98789.70;3731378;78;43366;-24
2021/05/31 20:34:40;;;;;;;4.70;3.25;;;;;;;14.95;62.92;98783.66;3799763;76;43518;-23
2021/05/31 20:39:46;;;;;;;4.53;3.02;;;;;;;14.67;66.02;98794.16;3806985;76;44005;-23
2021/05/31 20:44:52;;;;;;;4.50;3.58;;;;;;;14.60;67.51;98795.38;3804362;76;42832;-25
2021/05/31 20:50:00;;;;;;;5.75;3.72;;;;;;;14.42;68.91;98789.69;3727094;78;44270;-26
2021/05/31 20:55:10;;;;;;;8.48;3.67;;;;;;;14.16;72.22;98795.41;3805959;76;43647;-25
2021/05/31 21:00:20;;;;;;;4.10;3.70;;;;;;;14.00;71.98;98788.19;3805180;76;43988;-25
2021/05/31 21:05:26;;;;;;;4.25;3.80;;;;;;;13.81;74.22;98789.42;3801165;76;44090;-26
2021/05/31 21:10:35;;;;;;;4.55;4.08;;;;;;;13.63;76.56;98785.56;3803641;76;43336;-26
2021/05/31 21:15:46;;;;;;;4.55;3.58;;;;;;;13.49;77.17;98780.36;3803378;76;43428;-25
2021/05/31 21:20:53;;;;;;;4.30;3.87;;;;;;;13.27;79.63;98784.06;3806169;76;44060;-25
2021/05/31 21:26:00;;;;;;;4.40;4.00;;;;;;;13.24;78.83;98786.58;3731205;78;44470;-25
2021/05/31 21:31:07;;;;;;;5.60;4.03;;;;;;;13.19;78.21;98787.62;3806452;76;44204;-25
2021/05/31 21:36:16;;;;;;;4.42;3.90;;;;;;;13.23;76.69;98789.47;3804563;76;43493;-25
2021/05/31 21:41:22;;;;;;;4.53;3.60;;;;;;;13.26;76.17;98792.67;3807737;76;43380;-25
2021/05/31 21:46:28;;;;;;;5.40;4.00;;;;;;;13.22;76.31;98781.87;3806307;76;43190;-25
2021/05/31 21:51:34;;;;;;;6.33;3.75;;;;;;;13.14;76.41;98781.85;3807324;76;44140;-25
2021/05/31 21:56:40;;;;;;;6.20;4.03;;;;;;;13.15;75.87;98782.72;3807248;76;44038;-29
2021/05/31 22:01:46;;;;;;;3.98;3.47;;;;;;;12.99;78.75;98786.27;3805834;76;44358;-25
2021/05/31 22:06:52;;;;;;;4.60;3.40;;;;;;;12.85;79.37;98785.91;3730763;78;43860;-25
2021/05/31 22:11:58;;;;;;;4.72;3.92;;;;;;;12.73;79.43;98781.83;3808250;76;42921;-24
2021/05/31 22:17:06;;;;;;;4.33;3.90;;;;;;;12.59;80.15;98782.81;3805276;76;43214;-24
2021/05/31 22:23:23;;;;;;;4.37;3.05;;;;;;;12.55;79.64;98780.09;3802876;76;43683;-24
2021/05/31 22:27:41;;;;;;;4.60;3.25;;;;;;;12.59;78.08;98774.70;3725876;78;42778;-24
2021/05/31 22:32:46;;;;;;;4.12;3.50;;;;;;;12.57;77.66;98774.54;3806409;76;44073;-25
2021/05/31 22:37:52;;;;;;;4.28;3.80;;;;;;;12.38;82.12;98767.05;3806533;76;44109;-25
2021/05/31 22:43:05;;;;;;;5.60;4.28;;;;;;;11.92;88.87;98778.16;3807765;76;44090;-25
2021/05/31 23:05:00;;;;;;;6.12;4.28;;;;;;;11.38;92.74;98772.42;3807638;78;43665;-25
2021/05/31 23:15:25;;;;;;;4.80;4.30;;;;;;;11.24;92.98;98777.03;3731796;76;44314;-25
2021/05/31 23:20:32;;;;;;;4.47;3.87;;;;;;;11.16;93.36;98785.07;3806768;76;44197;-25
2021/05/31 23:25:38;;;;;;;4.85;4.15;;;;;;;11.08;93.21;98769.67;3807072;76;44697;-25
2021/05/31 23:30:44;;;;;;;5.17;4.67;;;;;;;10.97;93.92;98773.47;3805278;76;44065;-25
2021/05/31 23:35:50;;;;;;;6.30;4.80;;;;;;;10.90;94.54;98771.89;3800528;76;43466;-25
2021/05/31 23:40:56;;;;;;;6.83;5.12;;;;;;;10.84;94.93;98767.63;3806874;76;44052;-25
2021/05/31 23:46:02;;;;;;;5.30;4.55;;;;;;;10.76;96.05;98761.65;3730217;78;43351;-25
2021/05/31 23:51:27;;;;;;;6.03;5.25;;;;;;;10.70;97.87;98757.72;3805028;76;44046;-25
2021/05/31 23:56:38;;;;;;;6.70;4.95;;;;;;;10.60;99.23;98757.78;3807700;76;43724;-25
